Time;durP1;ratioP1;P1;durP2;ratioP2;P2;SDS_P1;SDS_P2;PMS_P1;PMS_P2;Temp;Humidity;BMP_temperature;BMP_pressure;BME280_temperature;BME280_humidity;BME280_pressure;Samples;Min_cycle;Max_cycle;Signal;HPM_P1;HPM_P2
2023/05/04 00:00:48;;;;;;;9.20;6.70;;;10.80;99.90;;;;;;4970452;28;20038;-73
2023/05/04 00:03:14;;;;;;;10.18;7.43;;;10.70;99.90;;;;;;4986208;28;20038;-73
2023/05/04 00:05:42;;;;;;;10.25;6.95;;;10.70;99.90;;;;;;4970698;28;20141;-73
2023/05/04 00:08:08;;;;;;;9.93;6.93;;;10.60;99.90;;;;;;4982924;28;20030;-74
2023/05/04 00:10:34;;;;;;;10.60;7.32;;;10.60;99.90;;;;;;4985967;28;20030;-74
2023/05/04 00:12:59;;;;;;;10.65;7.47;;;10.60;99.90;;;;;;4988406;28;20034;-74
2023/05/04 00:15:26;;;;;;;11.40;7.20;;;10.50;99.90;;;;;;4986715;28;20034;-74
2023/05/04 00:17:51;;;;;;;9.20;6.50;;;10.50;99.90;;;;;;4986739;28;20030;-74
2023/05/04 00:20:17;;;;;;;9.32;6.95;;;10.50;99.90;;;;;;4972609;28;20511;-73
2023/05/04 00:22:43;;;;;;;10.43;6.78;;;10.50;99.90;;;;;;4985167;28;20026;-72
2023/05/04 00:25:12;;;;;;;9.70;7.10;;;10.40;99.90;;;;;;4986344;28;20030;-72
2023/05/04 00:27:37;;;;;;;10.45;6.60;;;10.30;99.90;;;;;;4985948;28;20053;-72
2023/05/04 00:30:03;;;;;;;10.82;7.40;;;10.30;99.90;;;;;;4991453;28;20417;-72
2023/05/04 00:32:29;;;;;;;10.05;6.97;;;10.20;99.90;;;;;;4991185;28;20018;-73
2023/05/04 00:34:56;;;;;;;10.27;7.68;;;10.20;99.90;;;;;;4989716;28;20022;-73
2023/05/04 00:37:30;;;;;;;11.27;7.53;;;10.20;99.90;;;;;;4991569;28;20026;-73
2023/05/04 00:39:56;;;;;;;12.70;7.32;;;10.20;99.90;;;;;;4989183;28;20030;-72
2023/05/04 00:42:24;;;;;;;10.57;7.00;;;10.20;99.90;;;;;;4988735;28;20034;-73
2023/05/04 00:44:50;;;;;;;10.40;8.13;;;10.20;99.90;;;;;;4993544;28;20038;-73
2023/05/04 00:47:20;;;;;;;9.52;7.45;;;10.10;99.90;;;;;;4992012;28;20034;-74
2023/05/04 00:49:45;;;;;;;11.38;7.93;;;10.10;99.90;;;;;;4977383;28;20030;-75
2023/05/04 00:52:13;;;;;;;14.75;8.20;;;10.10;99.90;;;;;;4991749;28;20142;-75
2023/05/04 00:54:41;;;;;;;14.70;7.47;;;10.10;99.90;;;;;;4991127;28;20018;-74
2023/05/04 00:57:10;;;;;;;9.52;7.03;;;10.10;99.90;;;;;;4992796;28;20113;-76
2023/05/04 00:59:35;;;;;;;10.35;7.65;;;10.10;99.90;;;;;;4989737;28;20057;-73
2023/05/04 01:02:01;;;;;;;10.73;7.93;;;10.10;99.90;;;;;;4991324;28;20062;-75
2023/05/04 01:04:27;;;;;;;11.70;8.13;;;10.10;99.90;;;;;;4992139;28;20030;-75
2023/05/04 01:07:17;;;;;;;9.95;7.80;;;10.10;99.90;;;;;;4991912;28;20401;-75
2023/05/04 01:10:08;;;;;;;11.57;8.13;;;10.00;99.90;;;;;;4992236;28;20121;-75
2023/05/04 01:12:41;;;;;;;12.90;9.13;;;10.00;99.90;;;;;;4989772;28;20030;-76
2023/05/04 01:15:08;;;;;;;12.30;7.00;;;10.00;99.90;;;;;;4987528;28;20030;-76
2023/05/04 01:17:34;;;;;;;14.10;7.55;;;10.00;99.90;;;;;;4990031;28;20048;-77
2023/05/04 01:20:03;;;;;;;10.35;7.50;;;10.00;99.90;;;;;;4988933;28;20034;-77
2023/05/04 01:22:38;;;;;;;11.27;7.00;;;9.90;99.90;;;;;;4991872;28;20436;-77
2023/05/04 01:25:07;;;;;;;9.30;7.20;;;9.90;99.90;;;;;;4990075;28;20030;-76
2023/05/04 01:27:50;;;;;;;12.73;7.88;;;9.90;99.90;;;;;;4991730;28;20101;-77
2023/05/04 01:30:24;;;;;;;12.77;7.38;;;9.80;99.90;;;;;;4989618;28;20030;-75
2023/05/04 01:32:50;;;;;;;;;;;9.80;99.90;;;;;;4972425;28;20064;-75
2023/05/04 01:35:19;;;;;;;15.85;7.40;;;9.80;99.90;;;;;;4990459;28;19937;-76
2023/05/04 01:37:45;;;;;;;11.40;7.47;;;9.80;99.90;;;;;;4988655;28;20022;-75
2023/05/04 01:40:11;;;;;;;11.85;7.95;;;9.80;99.90;;;;;;4991487;28;20027;-76
2023/05/04 01:42:36;;;;;;;12.07;7.68;;;9.80;99.90;;;;;;4988927;28;20481;-76
2023/05/04 01:45:02;;;;;;;11.13;8.20;;;9.70;99.90;;;;;;4993473;28;20125;-76
2023/05/04 01:47:28;;;;;;;13.85;8.60;;;9.70;99.90;;;;;;4991907;28;20039;-77
2023/05/04 01:49:54;;;;;;;15.52;7.88;;;9.70;99.90;;;;;;4991082;28;20418;-76
2023/05/04 01:52:19;;;;;;;10.48;8.00;;;9.70;99.90;;;;;;4990819;28;20101;-76
2023/05/04 01:54:45;;;;;;;11.13;7.35;;;9.60;99.90;;;;;;4986503;28;20458;-76
2023/05/04 01:57:13;;;;;;;11.68;8.30;;;9.60;99.90;;;;;;4990795;28;20022;-76
2023/05/04 01:59:39;;;;;;;12.27;7.95;;;9.60;99.90;;;;;;4986266;28;20050;-77
2023/05/04 02:02:04;;;;;;;11.65;8.48;;;9.60;99.90;;;;;;4990105;28;20397;-76
2023/05/04 02:04:30;;;;;;;12.65;8.05;;;9.60;99.90;;;;;;4992358;28;20030;-77
2023/05/04 02:06:56;;;;;;;13.50;8.23;;;9.60;99.90;;;;;;4992266;28;20102;-77
2023/05/04 02:09:21;;;;;;;13.05;8.35;;;9.60;99.90;;;;;;4993115;28;20213;-76
2023/05/04 02:11:47;;;;;;;12.23;8.82;;;9.60;99.90;;;;;;4994978;28;20374;-77
2023/05/04 02:14:12;;;;;;;11.95;9.15;;;9.50;99.90;;;;;;4994413;28;20029;-76
2023/05/04 02:16:41;;;;;;;18.75;9.95;;;9.50;99.90;;;;;;4990558;28;20397;-77
2023/05/04 02:19:07;;;;;;;13.35;8.73;;;9.50;99.90;;;;;;4989982;28;20133;-77
2023/05/04 02:21:32;;;;;;;11.38;8.35;;;9.50;99.90;;;;;;4991214;28;20520;-77
2023/05/04 02:23:58;;;;;;;15.70;9.43;;;9.40;99.90;;;;;;4992309;28;20106;-75
2023/05/04 02:26:24;;;;;;;14.43;9.35;;;9.40;99.90;;;;;;4990935;28;23880;-76
2023/05/04 02:28:49;;;;;;;14.30;9.65;;;9.40;99.90;;;;;;4991748;28;20030;-76
2023/05/04 02:31:15;;;;;;;19.52;11.02;;;9.40;99.90;;;;;;4991455;28;20096;-77
2023/05/04 02:33:44;;;;;;;18.20;9.02;;;9.40;99.90;;;;;;4993219;28;20026;-77
2023/05/04 02:36:09;;;;;;;17.77;9.57;;;9.40;99.90;;;;;;4987601;28;20060;-77
2023/05/04 02:38:35;;;;;;;15.63;9.80;;;9.40;99.90;;;;;;4992757;28;20022;-78
2023/05/04 02:41:01;;;;;;;13.25;9.27;;;9.40;99.90;;;;;;4994644;28;20038;-77
2023/05/04 02:43:29;;;;;;;14.07;9.50;;;9.40;99.90;;;;;;4993394;28;20511;-77
2023/05/04 02:45:57;;;;;;;13.93;9.65;;;9.40;99.90;;;;;;4990671;28;20057;-77
2023/05/04 02:48:23;;;;;;;13.50;8.68;;;9.40;99.90;;;;;;4988743;28;20102;-77
2023/05/04 02:50:50;;;;;;;18.27;10.02;;;9.40;99.90;;;;;;4989989;28;20165;-77
2023/05/04 02:53:15;;;;;;;14.57;9.57;;;9.40;99.90;;;;;;4976972;28;20117;-77
2023/05/04 02:55:44;;;;;;;15.02;9.45;;;9.40;99.90;;;;;;4982753;28;20461;-77
2023/05/04 02:58:10;;;;;;;14.70;10.07;;;9.40;99.90;;;;;;4989380;28;20197;-77
2023/05/04 03:00:41;;;;;;;17.90;9.82;;;9.30;99.90;;;;;;5003492;28;20018;-78
2023/05/04 03:03:07;;;;;;;16.33;9.90;;;9.30;99.90;;;;;;4993535;28;20113;-77
2023/05/04 03:05:36;;;;;;;17.13;10.45;;;9.30;99.90;;;;;;4992734;28;20117;-76
2023/05/04 03:08:01;;;;;;;14.05;9.52;;;9.30;99.90;;;;;;4992574;28;20044;-77
2023/05/04 03:10:27;;;;;;;12.43;9.90;;;9.30;99.90;;;;;;4993104;28;20034;-77
2023/05/04 03:12:52;;;;;;;15.68;10.18;;;9.30;99.90;;;;;;4990985;28;20061;-77
2023/05/04 03:15:21;;;;;;;13.88;10.10;;;9.30;99.90;;;;;;4992350;28;20392;-77
2023/05/04 03:17:47;;;;;;;15.25;10.45;;;9.30;99.90;;;;;;4990513;28;20027;-77
2023/05/04 03:20:24;;;;;;;18.85;11.55;;;9.20;99.90;;;;;;4990737;28;20022;-77
2023/05/04 03:22:50;;;;;;;15.32;10.23;;;9.20;99.90;;;;;;4989154;28;20030;-77
2023/05/04 03:25:16;;;;;;;17.38;10.90;;;9.20;99.90;;;;;;4990422;28;20022;-77
2023/05/04 03:27:47;;;;;;;15.45;10.15;;;9.20;99.90;;;;;;4991296;28;20026;-78
2023/05/04 03:30:16;;;;;;;15.48;10.10;;;9.20;99.90;;;;;;4993860;28;20188;-76
2023/05/04 03:32:41;;;;;;;17.65;10.38;;;9.20;99.90;;;;;;4989813;28;20026;-77
2023/05/04 03:35:08;;;;;;;14.85;9.55;;;9.20;99.90;;;;;;4992836;28;20018;-78
2023/05/04 03:37:33;;;;;;;18.05;11.20;;;9.10;99.90;;;;;;4994662;28;20105;-78
2023/05/04 03:39:59;;;;;;;16.13;10.40;;;9.10;99.90;;;;;;4993258;28;20054;-76
2023/05/04 03:42:24;;;;;;;16.50;10.25;;;9.10;99.90;;;;;;4987156;28;20049;-77
2023/05/04 03:44:50;;;;;;;15.20;9.70;;;9.00;99.90;;;;;;4998653;28;20125;-78
2023/05/04 03:47:16;;;;;;;18.38;10.07;;;9.00;99.90;;;;;;4995312;28;20030;-77
2023/05/04 03:49:41;;;;;;;13.95;9.98;;;9.00;99.90;;;;;;4976618;28;20068;-77
2023/05/04 03:52:07;;;;;;;17.65;10.82;;;8.90;99.90;;;;;;4989990;28;20048;-77
2023/05/04 03:54:32;;;;;;;17.48;10.85;;;8.90;99.90;;;;;;4989977;28;20023;-76
2023/05/04 03:57:03;;;;;;;14.75;10.50;;;8.90;99.90;;;;;;4993809;28;20481;-76
2023/05/04 03:59:29;;;;;;;15.70;10.77;;;8.90;99.90;;;;;;4990163;28;20121;-77
2023/05/04 04:02:01;;;;;;;17.17;11.57;;;8.90;99.90;;;;;;4970805;28;20034;-76
2023/05/04 04:04:26;;;;;;;17.38;10.57;;;9.00;99.90;;;;;;4989719;28;20117;-77
2023/05/04 04:06:52;;;;;;;18.40;11.68;;;9.00;99.90;;;;;;4986482;28;20101;-76
2023/05/04 04:09:17;;;;;;;19.35;11.63;;;9.00;99.90;;;;;;4989391;28;20026;-76
2023/05/04 04:11:46;;;;;;;20.23;11.57;;;9.00;99.90;;;;;;4988370;28;21016;-76
2023/05/04 04:14:11;;;;;;;22.05;11.60;;;9.00;99.90;;;;;;4990927;28;20544;-76
2023/05/04 04:16:37;;;;;;;20.30;10.85;;;8.90;99.90;;;;;;4988028;28;20093;-76
2023/05/04 04:19:03;;;;;;;17.63;10.43;;;8.90;99.90;;;;;;4988489;28;20061;-76
2023/05/04 04:21:31;;;;;;;18.20;11.07;;;9.00;99.90;;;;;;4990052;28;20062;-75
2023/05/04 04:23:57;;;;;;;20.52;12.90;;;9.00;99.90;;;;;;4989093;28;20048;-75
2023/05/04 04:26:22;;;;;;;20.88;12.07;;;8.90;99.90;;;;;;4986940;28;20109;-77
2023/05/04 04:28:49;;;;;;;19.00;13.18;;;8.90;99.90;;;;;;4985764;28;20072;-76
2023/05/04 04:31:18;;;;;;;19.65;11.73;;;8.90;99.90;;;;;;4989777;28;20046;-77
2023/05/04 04:33:44;;;;;;;18.42;12.10;;;8.90;99.90;;;;;;4988623;28;20129;-76
2023/05/04 04:36:15;;;;;;;20.35;11.20;;;8.90;99.90;;;;;;4990652;28;20114;-77
2023/05/04 04:38:45;;;;;;;18.42;11.02;;;8.90;99.90;;;;;;4970773;28;20485;-76
2023/05/04 04:41:14;;;;;;;18.08;11.93;;;8.90;99.90;;;;;;4989442;28;20515;-76
2023/05/04 04:43:39;;;;;;;17.83;11.40;;;9.00;99.90;;;;;;4987595;28;20027;-76
2023/05/04 04:46:05;;;;;;;17.88;10.35;;;8.90;99.90;;;;;;4988909;28;20109;-76
2023/05/04 04:48:31;;;;;;;21.08;11.70;;;9.00;99.90;;;;;;4989272;28;20551;-77
2023/05/04 04:50:57;;;;;;;16.88;10.38;;;8.90;99.90;;;;;;4993036;28;20031;-77
2023/05/04 04:53:23;;;;;;;17.60;10.93;;;9.00;99.90;;;;;;4990826;28;20088;-77
2023/05/04 04:55:49;;;;;;;19.77;10.38;;;9.00;99.90;;;;;;4987690;28;20082;-77
2023/05/04 04:58:15;;;;;;;20.40;10.75;;;9.00;99.90;;;;;;4988355;28;20023;-77
2023/05/04 05:00:40;;;;;;;21.85;11.07;;;9.00;99.90;;;;;;4996582;28;20053;-78
2023/05/04 05:03:06;;;;;;;16.27;10.75;;;9.10;99.90;;;;;;4994397;28;20468;-77
2023/05/04 05:05:32;;;;;;;18.17;11.02;;;9.20;99.90;;;;;;4992036;28;20409;-76
2023/05/04 05:08:03;;;;;;;15.82;10.77;;;9.30;99.90;;;;;;4989315;28;20061;-77
2023/05/04 05:10:29;;;;;;;20.45;10.80;;;9.40;99.90;;;;;;4988770;28;20145;-77
2023/05/04 05:13:10;;;;;;;17.30;11.07;;;9.50;99.90;;;;;;4993195;28;20054;-78
2023/05/04 05:15:39;;;;;;;16.00;10.43;;;9.60;99.90;;;;;;4995045;28;20030;-77
2023/05/04 05:18:04;;;;;;;22.05;11.98;;;9.70;99.90;;;;;;4992981;28;20041;-76
2023/05/04 05:20:36;;;;;;;16.27;9.85;;;9.80;99.90;;;;;;4993458;28;20034;-77
2023/05/04 05:23:01;;;;;;;18.58;10.82;;;9.90;99.90;;;;;;4990864;28;20424;-76
2023/05/04 05:25:27;;;;;;;16.83;10.35;;;10.00;99.90;;;;;;4994085;28;20027;-77
2023/05/04 05:27:52;;;;;;;25.27;11.48;;;10.10;99.90;;;;;;4990070;28;20037;-73
2023/05/04 05:30:18;;;;;;;21.70;12.00;;;10.20;99.90;;;;;;4970631;28;20034;-74
2023/05/04 05:32:45;;;;;;;22.88;11.32;;;10.30;99.90;;;;;;4990692;28;20073;-73
2023/05/04 05:35:13;;;;;;;18.95;11.65;;;10.40;99.90;;;;;;4987497;28;20374;-74
2023/05/04 05:37:47;;;;;;;27.58;12.70;;;10.60;99.90;;;;;;4990739;28;20032;-74
2023/05/04 05:40:13;;;;;;;18.95;11.43;;;10.70;99.90;;;;;;4970851;28;20163;-77
2023/05/04 05:42:41;;;;;;;19.17;12.52;;;10.80;99.90;;;;;;4995026;28;20030;-76
2023/05/04 05:45:09;;;;;;;21.73;11.93;;;10.90;99.90;;;;;;4975769;28;20490;-77
2023/05/04 05:47:35;;;;;;;21.52;12.82;;;11.00;99.90;;;;;;4973751;28;20022;-76
2023/05/04 05:50:05;;;;;;;22.65;12.30;;;11.10;99.90;;;;;;4990449;28;20539;-77
2023/05/04 05:52:34;;;;;;;23.70;12.68;;;11.30;99.90;;;;;;4991242;28;20030;-76
2023/05/04 05:55:02;;;;;;;27.15;13.68;;;11.40;99.90;;;;;;4993151;28;20033;-77
2023/05/04 05:57:29;;;;;;;28.77;12.85;;;11.40;99.90;;;;;;4991527;28;20179;-80
2023/05/04 05:59:55;;;;;;;20.00;11.85;;;11.60;99.90;;;;;;4996087;28;20026;-78
2023/05/04 06:02:21;;;;;;;22.13;11.98;;;11.60;99.90;;;;;;4992443;28;20481;-78
2023/05/04 06:04:46;;;;;;;18.58;11.85;;;11.70;99.90;;;;;;4992476;28;20113;-77
2023/05/04 06:07:12;;;;;;;19.00;11.73;;;11.80;99.90;;;;;;4973445;28;20461;-77
2023/05/04 06:09:38;;;;;;;19.45;12.18;;;11.80;99.90;;;;;;4976490;28;20030;-78
2023/05/04 06:12:06;;;;;;;21.20;10.85;;;11.90;99.90;;;;;;4990048;28;20097;-78
2023/05/04 06:14:32;;;;;;;15.60;10.23;;;11.90;99.90;;;;;;4993872;28;20050;-78
2023/05/04 06:16:57;;;;;;;18.05;11.25;;;11.90;99.90;;;;;;4988783;28;20026;-77
2023/05/04 06:19:23;;;;;;;17.10;11.32;;;11.90;99.90;;;;;;4993786;28;20054;-78
2023/05/04 06:21:49;;;;;;;21.17;11.77;;;11.90;99.90;;;;;;4974250;28;20041;-77
2023/05/04 06:24:15;;;;;;;16.65;10.60;;;11.90;99.90;;;;;;4977925;28;20038;-78
2023/05/04 06:26:43;;;;;;;20.05;11.85;;;12.00;99.90;;;;;;4992168;28;20388;-77
2023/05/04 06:29:09;;;;;;;21.10;11.18;;;12.10;99.90;;;;;;4993700;28;20034;-78
2023/05/04 06:31:34;;;;;;;17.88;11.40;;;12.10;99.90;;;;;;4993238;28;20568;-77
2023/05/04 06:34:03;;;;;;;22.00;11.38;;;12.10;99.90;;;;;;4987896;28;20045;-79
2023/05/04 06:36:28;;;;;;;16.52;10.77;;;12.20;99.90;;;;;;4991017;28;20033;-78
2023/05/04 06:38:56;;;;;;;17.42;11.57;;;12.20;99.90;;;;;;4990312;28;20072;-77
2023/05/04 06:41:23;;;;;;;18.48;10.80;;;12.30;99.90;;;;;;4992525;28;20061;-78
2023/05/04 06:43:48;;;;;;;17.10;11.38;;;12.40;99.90;;;;;;4994675;28;20027;-79
2023/05/04 06:46:15;;;;;;;17.73;10.60;;;12.40;99.90;;;;;;4998940;28;20054;-78
2023/05/04 06:48:41;;;;;;;15.35;10.20;;;12.40;99.90;;;;;;4991047;28;20030;-78
2023/05/04 06:51:07;;;;;;;17.05;10.40;;;12.50;99.90;;;;;;4996255;28;20034;-78
2023/05/04 06:53:32;;;;;;;16.25;10.70;;;12.50;99.90;;;;;;4992152;28;20028;-79
2023/05/04 06:55:58;;;;;;;24.25;10.73;;;12.60;99.90;;;;;;4992515;28;20119;-78
2023/05/04 06:58:24;;;;;;;16.50;10.68;;;12.70;99.90;;;;;;4993472;28;20111;-78
2023/05/04 07:00:50;;;;;;;13.90;9.77;;;12.70;99.90;;;;;;4989415;28;20572;-78
2023/05/04 07:03:16;;;;;;;17.35;10.45;;;12.80;99.90;;;;;;4979892;28;20149;-78
2023/05/04 07:05:44;;;;;;;16.83;11.15;;;12.80;99.90;;;;;;4979060;28;20047;-78
2023/05/04 07:08:10;;;;;;;17.90;10.85;;;12.90;99.90;;;;;;4996383;28;20026;-78
2023/05/04 07:10:36;;;;;;;18.00;11.07;;;13.00;99.90;;;;;;4979770;28;20039;-78
2023/05/04 07:13:02;;;;;;;14.77;10.05;;;13.10;99.90;;;;;;4994156;28;20034;-77
2023/05/04 07:15:29;;;;;;;15.77;10.52;;;13.10;99.90;;;;;;4997203;28;20086;-78
2023/05/04 07:17:54;;;;;;;15.65;10.20;;;13.10;99.90;;;;;;4995794;28;20042;-78
2023/05/04 07:20:20;;;;;;;16.38;11.43;;;13.20;99.90;;;;;;4976362;28;20031;-79
2023/05/04 07:22:46;;;;;;;14.90;9.70;;;13.20;99.90;;;;;;4995045;28;20038;-78
2023/05/04 07:25:12;;;;;;;17.48;10.13;;;13.30;99.90;;;;;;4993919;28;20030;-79
2023/05/04 07:27:38;;;;;;;14.63;10.07;;;13.30;99.90;;;;;;4995739;28;20060;-78
2023/05/04 07:30:07;;;;;;;14.68;10.65;;;13.40;99.90;;;;;;4997351;28;20027;-79
2023/05/04 07:32:33;;;;;;;18.80;10.05;;;13.40;99.90;;;;;;4989562;28;20031;-78
2023/05/04 07:34:59;;;;;;;15.48;9.95;;;13.50;99.90;;;;;;4996773;28;20040;-78
2023/05/04 07:37:27;;;;;;;14.90;9.82;;;13.60;99.90;;;;;;4994218;28;20042;-78
2023/05/04 07:39:53;;;;;;;13.65;10.23;;;13.70;99.90;;;;;;4995303;28;20026;-78
2023/05/04 07:42:18;;;;;;;19.52;10.90;;;13.70;99.90;;;;;;4997188;28;20030;-78
2023/05/04 07:44:47;;;;;;;16.30;9.43;;;13.80;99.90;;;;;;4991048;28;20034;-78
2023/05/04 07:47:16;;;;;;;14.90;9.45;;;14.00;99.90;;;;;;4996039;28;20034;-78
2023/05/04 07:49:48;;;;;;;18.02;10.05;;;14.10;99.90;;;;;;4995363;28;20117;-78
2023/05/04 07:52:13;;;;;;;15.48;9.25;;;14.20;99.90;;;;;;4994323;28;20393;-79
2023/05/04 07:54:39;;;;;;;17.50;9.25;;;14.30;99.90;;;;;;4997356;28;20028;-77
2023/05/04 07:57:05;;;;;;;12.43;8.55;;;14.40;99.90;;;;;;4995607;28;20101;-78
2023/05/04 07:59:33;;;;;;;14.77;8.95;;;14.50;99.90;;;;;;4995011;28;20030;-77
2023/05/04 08:01:59;;;;;;;15.32;9.23;;;14.60;99.90;;;;;;4994068;28;20030;-78
2023/05/04 08:04:30;;;;;;;13.90;9.68;;;14.70;99.90;;;;;;4988537;28;20499;-77
2023/05/04 08:06:56;;;;;;;13.98;9.10;;;14.80;99.90;;;;;;4993753;28;20065;-77
2023/05/04 08:09:22;;;;;;;11.95;8.57;;;14.90;99.90;;;;;;4992234;28;20038;-78
2023/05/04 08:11:48;;;;;;;15.65;8.80;;;15.00;99.90;;;;;;4975209;28;20461;-78
2023/05/04 08:14:14;;;;;;;13.35;8.38;;;15.20;99.90;;;;;;4994450;28;20019;-77
2023/05/04 08:16:43;;;;;;;6.25;4.38;;;15.30;99.90;;;;;;4994985;28;20245;-77
2023/05/04 08:19:08;;;;;;;7.00;3.90;;;15.40;99.90;;;;;;4974380;28;20437;-79
2023/05/04 08:21:34;;;;;;;5.80;3.83;;;15.50;99.90;;;;;;4993386;28;20040;-79
2023/05/04 08:24:00;;;;;;;5.15;3.13;;;15.80;99.40;;;;;;4997287;28;20113;-77
2023/05/04 08:26:25;;;;;;;3.80;3.33;;;16.00;98.30;;;;;;4996758;28;20037;-78
2023/05/04 08:28:51;;;;;;;5.00;3.50;;;16.10;98.70;;;;;;4996814;28;20101;-78
2023/05/04 08:31:17;;;;;;;5.78;3.50;;;16.30;97.60;;;;;;4999259;28;20038;-78
2023/05/04 08:33:46;;;;;;;4.03;3.20;;;16.50;96.20;;;;;;4981088;28;20018;-78
2023/05/04 08:36:12;;;;;;;5.45;3.00;;;16.60;94.60;;;;;;4994595;28;20030;-78
2023/05/04 08:38:37;;;;;;;5.30;3.22;;;16.70;94.30;;;;;;4982610;28;20033;-79
2023/05/04 08:41:04;;;;;;;4.72;2.47;;;16.90;93.40;;;;;;4996651;28;20037;-78
2023/05/04 08:43:33;;;;;;;4.40;2.85;;;17.00;92.30;;;;;;4993754;28;20018;-79
2023/05/04 08:46:00;;;;;;;3.40;2.38;;;17.10;92.70;;;;;;4995853;28;20058;-79
2023/05/04 08:48:26;;;;;;;6.82;2.60;;;17.20;92.10;;;;;;4998806;28;20030;-78
2023/05/04 08:50:52;;;;;;;4.78;2.58;;;17.30;91.80;;;;;;4982809;28;20033;-78
2023/05/04 08:53:20;;;;;;;2.97;2.22;;;17.40;91.30;;;;;;4965357;28;20026;-77
2023/05/04 08:55:48;;;;;;;2.90;2.30;;;17.40;90.40;;;;;;4997136;28;20026;-76
2023/05/04 08:58:18;;;;;;;3.65;2.70;;;17.50;90.50;;;;;;4998357;28;20026;-78
2023/05/04 09:00:45;;;;;;;4.13;2.90;;;17.50;89.90;;;;;;4999096;28;20109;-77
2023/05/04 09:03:12;;;;;;;3.85;2.75;;;17.60;89.80;;;;;;4996672;28;20030;-78
2023/05/04 09:05:38;;;;;;;3.72;2.63;;;17.70;87.00;;;;;;4997623;28;20026;-77
2023/05/04 09:08:04;;;;;;;5.05;2.75;;;17.70;86.70;;;;;;4997451;28;20089;-78
2023/05/04 09:10:36;;;;;;;3.65;2.75;;;17.80;86.10;;;;;;4997321;28;20448;-78
2023/05/04 09:13:02;;;;;;;3.28;2.50;;;17.80;85.10;;;;;;5000083;28;20033;-77
2023/05/04 09:15:28;;;;;;;4.13;2.47;;;17.90;83.00;;;;;;4984686;28;20094;-78
2023/05/04 09:18:04;;;;;;;6.50;2.50;;;17.90;83.00;;;;;;4998126;28;20038;-78
2023/05/04 09:20:41;;;;;;;2.97;2.17;;;18.00;81.10;;;;;;4997209;28;20030;-77
2023/05/04 09:23:08;;;;;;;4.90;2.10;;;18.00;80.80;;;;;;4996267;28;20034;-78
2023/05/04 09:25:46;;;;;;;4.53;2.13;;;18.10;81.70;;;;;;4993915;28;20101;-78
2023/05/04 09:28:15;;;;;;;3.75;2.38;;;18.10;81.90;;;;;;4995791;28;20046;-77
2023/05/04 09:30:41;;;;;;;5.75;2.50;;;18.20;82.50;;;;;;4995291;28;20065;-77
2023/05/04 09:33:08;;;;;;;4.00;2.33;;;18.20;82.20;;;;;;4998313;28;20105;-78
2023/05/04 09:35:34;;;;;;;3.38;2.38;;;18.20;81.10;;;;;;4999249;28;20358;-79
2023/05/04 09:38:00;;;;;;;2.97;2.22;;;18.30;80.20;;;;;;5001291;28;20019;-78
2023/05/04 09:40:34;;;;;;;3.22;2.33;;;18.30;79.50;;;;;;4995148;28;20031;-80
2023/05/04 09:43:00;;;;;;;2.50;1.90;;;18.30;79.60;;;;;;4998007;28;20389;-80
2023/05/04 09:45:37;;;;;;;3.33;2.08;;;18.30;79.30;;;;;;4998331;28;20030;-79
2023/05/04 09:48:17;;;;;;;3.45;2.42;;;18.40;78.60;;;;;;5002308;28;20097;-79
2023/05/04 09:50:50;;;;;;;2.38;1.67;;;18.50;78.30;;;;;;4998917;28;20026;-79
2023/05/04 09:53:23;;;;;;;6.13;2.30;;;18.50;78.10;;;;;;4996012;28;20031;-78
2023/05/04 09:56:10;;;;;;;2.50;2.17;;;18.60;77.00;;;;;;4994240;28;20035;-78
2023/05/04 09:58:36;;;;;;;3.22;2.10;;;18.70;75.30;;;;;;5008877;28;20026;-77
2023/05/04 10:01:03;;;;;;;4.35;2.13;;;18.70;74.20;;;;;;5006986;28;20081;-78
2023/05/04 10:03:29;;;;;;;2.60;2.38;;;18.70;73.80;;;;;;4998239;28;20018;-78
2023/05/04 10:05:57;;;;;;;3.03;2.05;;;18.80;73.90;;;;;;5004975;28;20026;-78
2023/05/04 10:08:22;;;;;;;2.63;2.10;;;18.80;72.60;;;;;;5001359;28;20026;-80
2023/05/04 10:10:49;;;;;;;3.70;2.28;;;18.90;73.40;;;;;;4997542;28;20014;-80
2023/05/04 10:13:16;;;;;;;3.70;2.40;;;18.90;73.80;;;;;;4996571;28;20073;-80
2023/05/04 10:16:12;;;;;;;3.47;2.20;;;18.90;74.00;;;;;;4992858;28;20019;-78
2023/05/04 10:19:06;;;;;;;3.58;2.10;;;18.90;72.60;;;;;;4951797;28;20046;-77
2023/05/04 10:21:46;;;;;;;3.33;1.83;;;18.90;73.30;;;;;;4993727;28;20118;-80
2023/05/04 10:24:30;;;;;;;3.75;2.05;;;18.90;73.50;;;;;;4996050;28;20128;-78
2023/05/04 10:27:12;;;;;;;4.65;2.30;;;19.00;73.30;;;;;;4975501;28;23807;-78
2023/05/04 10:29:39;;;;;;;4.18;2.10;;;19.00;73.50;;;;;;4991843;28;20030;-78
2023/05/04 10:32:06;;;;;;;3.38;2.03;;;19.10;73.50;;;;;;4992170;28;20035;-77
2023/05/04 10:34:33;;;;;;;3.38;2.55;;;19.10;72.80;;;;;;4991515;28;20033;-77
2023/05/04 10:37:00;;;;;;;2.92;2.33;;;19.10;72.20;;;;;;4994969;28;20128;-78
2023/05/04 10:39:29;;;;;;;3.63;2.40;;;19.10;73.10;;;;;;4989479;28;20157;-76
2023/05/04 10:42:03;;;;;;;6.57;2.20;;;19.20;72.70;;;;;;4987486;28;20121;-77
2023/05/04 10:44:38;;;;;;;2.92;2.00;;;19.10;73.80;;;;;;4994755;28;20039;-77
2023/05/04 10:47:07;;;;;;;2.40;2.20;;;19.20;74.00;;;;;;4993688;28;20409;-77
2023/05/04 10:49:34;;;;;;;2.63;1.95;;;19.40;71.60;;;;;;4970207;28;20030;-77
2023/05/04 10:52:06;;;;;;;4.18;1.98;;;19.40;72.10;;;;;;4989329;28;20061;-76
2023/05/04 10:54:36;;;;;;;2.70;1.83;;;19.40;72.00;;;;;;4976588;28;20030;-76
2023/05/04 10:57:15;;;;;;;3.65;2.58;;;19.60;71.90;;;;;;4991303;28;20085;-77
2023/05/04 10:59:41;;;;;;;2.10;1.70;;;19.60;71.40;;;;;;4989858;28;20109;-77
2023/05/04 11:02:07;;;;;;;3.53;2.17;;;19.70;70.70;;;;;;4986165;28;20122;-76
2023/05/04 11:04:33;;;;;;;2.70;2.22;;;19.80;70.60;;;;;;4990211;28;20033;-75
2023/05/04 11:07:01;;;;;;;5.13;1.90;;;19.80;70.50;;;;;;4974189;28;20031;-75
2023/05/04 11:09:33;;;;;;;5.65;2.15;;;19.80;69.70;;;;;;4993830;28;20065;-76
2023/05/04 11:11:59;;;;;;;2.78;1.85;;;19.90;69.70;;;;;;4990841;28;20089;-75
2023/05/04 11:14:27;;;;;;;2.13;1.77;;;19.90;70.20;;;;;;4993059;28;20022;-78
2023/05/04 11:17:05;;;;;;;2.17;1.83;;;19.90;70.20;;;;;;4989859;28;20041;-76
2023/05/04 11:19:33;;;;;;;4.50;2.35;;;19.90;70.90;;;;;;4972931;28;20037;-75
2023/05/04 11:22:00;;;;;;;2.58;1.95;;;19.90;69.90;;;;;;4970893;28;20057;-75
2023/05/04 11:24:48;;;;;;;2.38;1.70;;;20.00;70.40;;;;;;4987635;28;20061;-75
2023/05/04 11:27:21;;;;;;;10.57;4.97;;;20.00;70.40;;;;;;4986449;28;20125;-75
2023/05/04 11:30:01;;;;;;;3.80;2.57;;;20.10;69.30;;;;;;4992792;28;20111;-76
2023/05/04 11:32:36;;;;;;;4.90;3.08;;;20.10;69.90;;;;;;4975360;28;20026;-75
2023/05/04 11:35:03;;;;;;;4.18;2.38;;;20.10;68.30;;;;;;4989523;28;20421;-77
2023/05/04 11:37:30;;;;;;;4.15;2.33;;;20.10;68.10;;;;;;4994644;28;20022;-77
2023/05/04 11:39:56;;;;;;;4.70;2.42;;;20.10;68.50;;;;;;4990097;28;20076;-77
2023/05/04 11:42:23;;;;;;;6.10;2.72;;;20.10;67.50;;;;;;4990522;28;20027;-78
2023/05/04 11:44:50;;;;;;;3.17;2.50;;;20.10;68.20;;;;;;4990689;28;20065;-77
2023/05/04 11:47:16;;;;;;;3.63;2.40;;;20.10;69.00;;;;;;4992564;28;20026;-76
2023/05/04 11:49:44;;;;;;;3.60;2.80;;;20.20;69.60;;;;;;4976197;28;20120;-77
2023/05/04 11:52:11;;;;;;;3.30;2.22;;;20.20;69.00;;;;;;4992738;28;20034;-76
2023/05/04 11:54:36;;;;;;;3.67;2.72;;;20.20;68.40;;;;;;4989551;28;20022;-78
2023/05/04 11:57:03;;;;;;;2.88;2.42;;;20.20;67.70;;;;;;4984172;28;20053;-78
2023/05/04 11:59:29;;;;;;;2.78;2.17;;;20.10;66.40;;;;;;4978412;28;20165;-76
2023/05/04 12:01:55;;;;;;;5.22;3.08;;;20.10;66.70;;;;;;4988489;28;20062;-77
2023/05/04 12:04:21;;;;;;;5.22;2.40;;;20.10;68.10;;;;;;4992400;28;20481;-76
2023/05/04 12:06:48;;;;;;;4.15;3.00;;;20.10;68.20;;;;;;4988915;28;20041;-77
2023/05/04 12:09:15;;;;;;;5.15;2.90;;;20.20;70.30;;;;;;4987829;28;20023;-75
2023/05/04 12:11:40;;;;;;;6.18;3.25;;;20.20;70.90;;;;;;4995870;28;20030;-75
2023/05/04 12:14:08;;;;;;;5.57;3.55;;;20.20;70.30;;;;;;4996257;28;20023;-76
2023/05/04 12:16:35;;;;;;;4.72;3.08;;;20.20;71.30;;;;;;4997226;28;20014;-77
2023/05/04 12:19:09;;;;;;;4.72;3.33;;;20.30;71.40;;;;;;4990054;28;20118;-75
2023/05/04 12:21:36;;;;;;;7.32;3.58;;;20.30;72.40;;;;;;4993046;28;20029;-77
2023/05/04 12:24:02;;;;;;;3.78;3.33;;;20.30;72.60;;;;;;4991136;28;20158;-76
2023/05/04 12:26:29;;;;;;;5.38;3.17;;;20.40;69.40;;;;;;4991018;28;20121;-76
2023/05/04 12:28:55;;;;;;;3.55;2.58;;;20.40;68.50;;;;;;4992790;28;20105;-76
2023/05/04 12:31:21;;;;;;;3.95;3.10;;;20.40;67.70;;;;;;4991457;28;20096;-77
2023/05/04 12:33:49;;;;;;;5.15;3.10;;;20.50;68.80;;;;;;4991585;28;20034;-76
2023/05/04 12:36:16;;;;;;;6.85;2.60;;;20.60;67.80;;;;;;4990998;28;20030;-76
2023/05/04 12:38:41;;;;;;;5.25;3.20;;;20.50;67.30;;;;;;4974609;28;20030;-76
2023/05/04 12:41:09;;;;;;;5.03;3.83;;;20.50;68.80;;;;;;4992421;28;20029;-76
2023/05/04 12:43:36;;;;;;;5.30;3.33;;;20.60;70.00;;;;;;4975607;28;20149;-78